Buckland Airport Buckland US
ICAO: PABL
IATA:
Category: Medium
Scheduled Services:

Elevation: 31 ft
TransAlt. 18000 ft.

Airport Communications:
AWOS 3:135.15
ANCHORAGE APP/DEP:119.2
CTAF:122.9
KOTZEBUE RDO:122.3

PABL Zoom In..

If you have problems with the map follow the link
https://www.worldairports.se/pages/airport.php?
ICAO=PABL

Runways:

(A) RW 11 length 3200 ft width 75 ft
---- / hdg 107

(B) RW 29 length 3200 ft width 75 ft
---- / hdg 287

Location; PABL
Day. 21 / Time. 23.56 Zulu
* Altimeter: 29.69
* Temperature: -09° c. -15.8°f.
* Wind from: 310° Speed 16 kn.
Dewpoint: -13° c.
Visibility: 10 Statute Miles.
Clouds: Few 1600 ft.

PABL 212356Z AUTO 31016KT 10SM FEW016 M09/M13 A2969 RMK AO2 SLP056 60000 T10891128 11089 21117 56023 FZRANO


Wind From 310°
Speed 16 kn.

 
 
jpsmedia.com for Web Design worldairports.se 2019   terms of use